HOURLY OBS INDEX

022

Yorke Peninsula and Kangaroo Island

CAPE BORDA

Site: 022823
Alt: 158.0m
95km W of KINGSCOTE (KANGAROO ISLAND)


  Time     Wind        Temp  DP   Baro     Rain since   Rain past  Vis(m), Cloud(base in m), Weather
  local        km/h                         9am  last   hr   10m    
Mon 19:30  SSE 17/ 20  22.6  6.4  1013.7    0.0   0.0   0.0   0.0   ----- 
Mon 20:00   SE 17/ 22  20.8 10.6  1013.7    0.0   0.0   0.0   0.0   ----- 
Mon 20:30  ESE 17/ 20  18.9 11.2  1013.6    0.0   0.0   0.0   0.0   ----- 
Mon 21:00  ESE 15/ 20  17.9 11.0  1013.6    0.0   0.0   0.0   0.0   ----- 
Mon 21:30  ESE 17/ 20  16.8 10.9  1013.5    0.0   0.0   0.0   0.0   ----- 
Mon 22:00    E 19/ 24  17.2  8.9  1013.5    0.0   0.0   0.0   0.0   ----- 
Mon 22:30    E 20/ 24  17.0  8.2  1013.5    0.0   0.0   0.0   0.0   ----- 
Mon 23:00    E 20/ 22  16.8  8.0  1013.2    0.0   0.0   0.0   0.0   ----- 
Mon 23:30  ENE 20/ 24  17.4  8.0  1013.1    0.0   0.0   0.0   0.0   ----- 
Tue 00:00  ENE 22/ 26  17.6  8.2  1012.8    0.0   0.0   0.0   0.0   ----- 
Tue 00:30  ENE 20/ 28  17.9  7.6  1012.5    0.0   0.0   0.0   0.0   ----- 

CAPE WILLOUGHBY

Site: 022803
Alt: 55.0m
49km ESE of KINGSCOTE (KANGAROO ISLAND)


  Time     Wind        Temp  DP   Baro     Rain since   Rain past  Vis(m), Cloud(base in m), Weather
  local        km/h                         9am  last   hr   10m    
Mon 19:30   SE  9/ 11  16.9 13.8  1014.7   ----  ----  ----   0.0   ----- 
Mon 20:00   SE  9/ 11  16.3 13.4  1014.5   ----  ----  ----   0.0   ----- 
Mon 20:30   SE 11/ 13  15.9 13.2  1014.4   ----  ----  ----   0.0   ----- 
Mon 21:00   SE  7/  7  15.7 13.0  1014.4   ----  ----  ----   0.0   ----- 
Mon 21:30  ESE  6/  7  15.5 12.8  1014.2   ----  ----  ----   0.0   ----- 
Mon 22:00  ENE  6/  7  15.3 12.6  1014.2   ----  ----  ----   0.0   ----- 
Mon 22:30   NE  6/  7  15.3 12.6  1014.3   ----  ----  ----   0.0   ----- 
Mon 23:00  NNE  6/  7  15.4 12.7  1014.2   ----  ----  ----   0.0   ----- 
Mon 23:30    N  7/  9  15.1 12.4  1014.1   ----  ----  ----   0.0   ----- 
Tue 00:00  NNE  6/  7  15.5 12.6  1014.0   ----  ----  ----   0.0   ----- 
Tue 00:30  NNE  9/ 11  15.6 12.2  1013.6   ----  ----  ----   0.0   ----- 

EDITHBURGH

Site: 022046
Alt: 6.0m
61km N of KINGSCOTE (KANGAROO ISLAND)


  Time     Wind        Temp  DP   Baro     Rain since   Rain past  Vis(m), Cloud(base in m), Weather
  local        km/h                         9am  last   hr   10m    
Mon 19:30  SSE 15/ 19  19.8 14.4  1012.9    0.0   0.0   0.0   0.0   ----- 
Mon 20:00  SSE 15/ 20  18.8 13.2  1012.9    0.0   0.0   0.0   0.0   ----- 
Mon 20:30  SSE 15/ 20  18.2 13.1  1013.0    0.0   0.0   0.0   0.0   ----- 
Mon 21:00    S 17/ 24  17.5 12.6  1013.0    0.0   0.0   0.0   0.0   ----- 
Mon 21:30    S 17/ 22  17.3 12.4  1013.2    0.0   0.0   0.0   0.0   ----- 
Mon 22:00  SSE 17/ 22  17.2 12.1  1013.3    0.0   0.0   0.0   0.0   ----- 
Mon 22:30  SSE 15/ 19  16.9 12.0  1013.4    0.0   0.0   0.0   0.0   ----- 
Mon 23:00    S 13/ 15  16.8 12.7  1013.4    0.0   0.0   0.0   0.0   ----- 
Mon 23:30  SSE  9/ 11  16.0 12.6  1013.1    0.0   0.0   0.0   0.0   ----- 
Tue 00:00  SSE  7/  9  16.2 12.6  1013.0    0.0   0.0   0.0   0.0   ----- 
Tue 00:30    E  7/ 11  14.8 11.4  1012.8    0.0   0.0   0.0   0.0   ----- 

KADINA AWS

Site: 022050
Alt: 41.1m
45km N of MAITLAND (YORKE PENINSULA)


  Time     Wind        Temp  DP   Baro     Rain since   Rain past  Vis(m), Cloud(base in m), Weather
  local        km/h                         9am  last   hr   10m    
Mon 19:30    E 13/ 17  29.1  2.4  1011.8    0.0   0.0   0.0   0.0   ----- 
Mon 20:00    E 17/ 26  26.3  4.1  1011.9    0.0   0.0   0.0   0.0   ----- 
Mon 20:30  ESE 17/ 20  23.9  4.8  1012.1    0.0   0.0   0.0   0.0   ----- 
Mon 21:00  ESE 15/ 19  22.0  5.4  1012.1    0.0   0.0   0.0   0.0   ----- 
Mon 21:30  ESE 15/ 17  20.6  6.5  1012.3    0.0   0.0   0.0   0.0   ----- 
Mon 22:00   SE 15/ 17  19.9  7.3  1012.5    0.0   0.0   0.0   0.0   ----- 
Mon 22:30  ESE 17/ 20  19.0  7.8  1012.6    0.0   0.0   0.0   0.0   ----- 
Mon 23:00   SE 17/ 20  18.7  8.1  1012.6    0.0   0.0   0.0   0.0   ----- 
Mon 23:30   SE 17/ 20  18.9  8.3  1012.6    0.0   0.0   0.0   0.0   ----- 
Tue 00:00  ESE 17/ 20  18.5  9.0  1012.4    0.0   0.0   0.0   0.0   ----- 
Tue 00:30  ESE 15/ 17  17.7  9.3  1012.2    0.0   0.0   0.0   0.0   ----- 

KINGSCOTE AERO

Site: 022841
Alt: 6.2m
12km WSW of KINGSCOTE (KANGAROO ISLAND)


  Time     Wind        Temp  DP   Baro     Rain since   Rain past  Vis(m), Cloud(base in m), Weather
  local        km/h                         9am  last   hr   10m    
Mon 19:30   SE 20/ 26  19.3 10.0  1014.0    0.0   0.0   0.0   0.0   10000 
Mon 20:00  SSE 17/ 22  17.8  9.9  1014.1    0.0   0.0   0.0   0.0   10000 
Mon 20:30   SE  9/ 13  16.4 10.3  1013.9    0.0   0.0   0.0   0.0   10000 
Mon 21:00   SE  7/ 11  15.5 10.5  1013.9    0.0   0.0   0.0   0.0   10000 
Mon 21:30   SE  6/  7  14.8 10.4  1014.0    0.0   0.0   0.0   0.0   10000 
Mon 22:00    C  0/  0  14.5 11.3  1014.0    0.0   0.0   0.0   0.0   10000 
Mon 22:30  SSW  6/  7  11.9  9.3  1013.9    0.0   0.0   0.0   0.0   10000 
Mon 23:00    W 11/ 13  10.7  8.6  1014.0    0.0   0.0   0.0   0.0   10000 
Mon 23:30  WSW  7/  9  10.2  8.3  1013.8    0.0   0.0   0.0   0.0   ----- 
Tue 00:00  WSW  7/  7  10.5  9.3  1013.6    0.0   0.0   0.0   0.0   ----- 
Tue 00:30    C  0/  0  10.6  9.5  1013.2    0.0   0.0   0.0   0.0   ----- 

MINLATON AERO

Site: 022031
Alt: 32.0m
44km SSW of MAITLAND (YORKE PENINSULA)


  Time     Wind        Temp  DP   Baro     Rain since   Rain past  Vis(m), Cloud(base in m), Weather
  local        km/h                         9am  last   hr   10m    
Mon 19:30  ESE 26/ 32  26.2  1.5  1012.3    0.0   0.0   0.0   0.0   ----- 
Mon 20:00  ESE 22/ 28  24.3  1.9  1012.5    0.0   0.0   0.0   0.0   ----- 
Mon 20:30  ESE 20/ 24  21.7  4.7  1012.6    0.0   0.0   0.0   0.0   ----- 
Mon 21:00  SSE 13/ 15  19.4  3.2  1012.8    0.0   0.0   0.0   0.0   ----- 
Mon 21:30  SSE 17/ 19  18.0  5.9  1012.9    0.0   0.0   0.0   0.0   ----- 
Mon 22:00    S 13/ 15  16.2  6.3  1013.1    0.0   0.0   0.0   0.0   ----- 
Mon 22:30    S 13/ 13  16.1  8.1  1013.1    0.0   0.0   0.0   0.0   ----- 
Mon 23:00    S  9/ 15  15.6  8.8  1013.1    0.0   0.0   0.0   0.0   ----- 
Mon 23:30  ESE 20/ 24  16.7 10.3  1013.1    0.0   0.0   0.0   0.0   ----- 
Tue 00:00  ESE 20/ 24  16.8 10.4  1012.6    0.0   0.0   0.0   0.0   ----- 
Tue 00:30  ESE 20/ 24  16.8 10.0  1012.4    0.0   0.0   0.0   0.0   ----- 

MOONTA (WARBURTO POINT)

Site: 022053
Alt: 1.0m
43km NNW of MAITLAND (YORKE PENINSULA)


  Time     Wind        Temp  DP   Baro     Rain since   Rain past  Vis(m), Cloud(base in m), Weather
  local        km/h                         9am  last   hr   10m    
Mon 19:30   SW  6/  9 --------  ------   ----  ----  ----  ----   ----- 
Mon 20:00   SW  6/  7 --------  ------   ----  ----  ----  ----   ----- 
Mon 20:30  ESE 19/ 24 --------  ------   ----  ----  ----  ----   ----- 
Mon 21:00   SE 13/ 17 --------  ------   ----  ----  ----  ----   ----- 
Mon 21:30   SE 15/ 22 --------  ------   ----  ----  ----  ----   ----- 
Mon 22:00   SE 15/ 19 --------  ------   ----  ----  ----  ----   ----- 
Mon 22:30   SE 13/ 17 --------  ------   ----  ----  ----  ----   ----- 
Mon 23:00  ESE 15/ 19 --------  ------   ----  ----  ----  ----   ----- 
Mon 23:30  ESE 20/ 28 --------  ------   ----  ----  ----  ----   ----- 
Tue 00:00  ESE 17/ 22 --------  ------   ----  ----  ----  ----   ----- 
Tue 00:30  ESE 20/ 28 --------  ------   ----  ----  ----  ----   ----- 

PARNDANA CFS AWS

Site: 022843
Alt: 165.0m
38km WSW of KINGSCOTE (KANGAROO ISLAND)


  Time     Wind        Temp  DP   Baro     Rain since   Rain past  Vis(m), Cloud(base in m), Weather
  local        km/h                         9am  last   hr   10m    
Mon 19:30   SE 13/ 19  19.4 10.7  ------    0.0   0.0   0.0   0.0   ----- 
Mon 20:00  ESE 11/ 15  17.1 10.9  ------    0.0   0.0   0.0   0.0   ----- 
Mon 20:30    E 11/ 13  15.2 11.4  ------    0.0   0.0   0.0   0.0   ----- 
Mon 21:00    E 11/ 13  14.1 11.1  ------    0.0   0.0   0.0   0.0   ----- 
Mon 21:30  ESE  7/  9  12.5 10.2  ------    0.0   0.0   0.0   0.0   ----- 
Mon 22:00    E  7/  9  12.0 10.1  ------    0.0   0.0   0.0   0.0   ----- 
Mon 22:30  ENE  2/  2  11.6 10.2  ------    0.0   0.0   0.0   0.0   ----- 
Mon 23:00  ENE  9/ 11  12.0 10.7  ------    0.0   0.0   0.0   0.0   ----- 
Mon 23:30  ENE  9/ 11  11.7  9.9  ------    0.0   0.0   0.0   0.0   ----- 
Tue 00:00   NE 11/ 13  11.6  9.2  ------    0.0   0.0   0.0   0.0   ----- 
Tue 00:30   NE  6/  7  12.9  8.8  ------    0.0   0.0   0.0   0.0   ----- 

STENHOUSE BAY

Site: 022049
Alt: 42.0m
76km WNW of KINGSCOTE (KANGAROO ISLAND)


  Time     Wind        Temp  DP   Baro     Rain since   Rain past  Vis(m), Cloud(base in m), Weather
  local        km/h                         9am  last   hr   10m    
Mon 19:30  SSE  7/ 11  20.1 12.1  1013.5    0.0   0.0   0.0   0.0   ----- 
Mon 20:00  ESE 13/ 15  18.9 10.7  1013.4    0.0   0.0   0.0   0.0   ----- 
Mon 20:30    E 11/ 13  18.5 13.6  1013.4    0.0   0.0   0.0   0.0   ----- 
Mon 21:00    E  9/ 13  17.9 14.0  1013.4    0.0   0.0   0.0   0.0   ----- 
Mon 21:30    E 17/ 20  17.8 13.5  1013.3    0.0   0.0   0.0   0.0   ----- 
Mon 22:00    E 17/ 20  17.6 12.9  1013.4    0.0   0.0   0.0   0.0   ----- 
Mon 22:30    E 17/ 20  17.5 11.5  1013.6    0.0   0.0   0.0   0.0   ----- 
Mon 23:00    E 17/ 22  17.4 11.0  1013.4    0.0   0.0   0.0   0.0   ----- 
Mon 23:30  ENE 13/ 19  17.2 11.7  1013.2    0.0   0.0   0.0   0.0   ----- 
Tue 00:00  ENE 11/ 15  17.2 12.1  1013.0    0.0   0.0   0.0   0.0   ----- 
Tue 00:30  ENE 11/ 15  17.1 12.4  1012.6    0.0   0.0   0.0   0.0   -----